Time;durP1;ratioP1;P1;durP2;ratioP2;P2;SDS_P1;SDS_P2;PMS_P1;PMS_P2;Temp;Humidity;BMP_temperature;BMP_pressure;BME280_temperature;BME280_humidity;BME280_pressure;Samples;Min_cycle;Max_cycle;Signal;HPM_P1;HPM_P2
2023/07/01 00:00:52;;;;;;;24.43;18.97;;;;;;;18.97;75.78;95815.22;5046688;28;20252;-69
2023/07/01 00:03:18;;;;;;;24.00;18.67;;;;;;;18.99;75.81;95808.81;5046615;28;20199;-69
2023/07/01 00:05:43;;;;;;;21.90;17.73;;;;;;;19.00;75.51;95809.63;5046221;28;20629;-69
2023/07/01 00:08:09;;;;;;;21.67;17.80;;;;;;;19.03;75.03;95802.22;5046649;28;20420;-69
2023/07/01 00:10:34;;;;;;;28.00;18.47;;;;;;;18.93;75.41;95800.50;5046806;28;20238;-69
2023/07/01 00:12:59;;;;;;;29.17;18.50;;;;;;;18.96;75.44;95801.06;5046895;28;20229;-69
2023/07/01 00:15:25;;;;;;;23.87;18.30;;;;;;;18.92;75.40;95798.81;5046576;28;20247;-68
2023/07/01 00:17:50;;;;;;;20.67;16.60;;;;;;;18.92;75.24;95802.34;5046357;28;20267;-70
2023/07/01 00:20:16;;;;;;;19.87;17.23;;;;;;;18.92;75.22;95806.78;5046195;28;20265;-69
2023/07/01 00:22:41;;;;;;;19.90;16.47;;;;;;;18.93;75.52;95801.34;5045655;28;20294;-69
2023/07/01 00:25:07;;;;;;;21.30;14.40;;;;;;;18.89;75.46;95804.41;5045409;28;20191;-69
2023/07/01 00:27:33;;;;;;;20.53;16.00;;;;;;;18.94;75.71;95803.03;5045671;28;20166;-69
2023/07/01 00:29:58;;;;;;;20.77;17.00;;;;;;;19.02;75.18;95802.38;5045483;28;20474;-70
2023/07/01 00:32:23;;;;;;;26.80;15.07;;;;;;;18.97;74.85;95801.94;5045544;28;20171;-68
2023/07/01 00:34:49;;;;;;;20.80;15.30;;;;;;;18.96;74.43;95805.56;5045349;28;20534;-70
2023/07/01 00:37:14;;;;;;;18.20;15.13;;;;;;;18.87;74.76;95799.22;5045592;28;20274;-69
2023/07/01 00:39:39;;;;;;;16.53;13.20;;;;;;;18.91;74.52;95797.97;5045783;28;20250;-69
2023/07/01 00:42:05;;;;;;;15.97;13.47;;;;;;;18.88;74.54;95800.06;5045917;28;20248;-68
2023/07/01 00:44:30;;;;;;;21.20;13.93;;;;;;;18.80;74.84;95798.91;5044059;28;20210;-69
2023/07/01 00:46:56;;;;;;;21.03;13.23;;;;;;;18.81;74.88;95799.75;5045727;28;20190;-69
2023/07/01 00:49:22;;;;;;;15.87;11.90;;;;;;;18.78;74.47;95792.03;5045379;28;20525;-68
2023/07/01 00:51:47;;;;;;;16.03;11.87;;;;;;;18.68;74.67;95791.94;5047836;28;20221;-69
2023/07/01 00:54:13;;;;;;;18.50;13.93;;;;;;;18.70;74.76;95794.50;5048903;28;21056;-69
2023/07/01 00:56:39;;;;;;;18.80;11.83;;;;;;;18.75;74.66;95798.41;5049188;28;20256;-69
2023/07/01 00:59:05;;;;;;;16.30;12.43;;;;;;;18.77;74.51;95801.00;5048991;28;20618;-70
2023/07/01 01:01:35;;;;;;;21.63;14.00;;;;;;;18.73;74.86;95803.06;5048957;28;20465;-69
2023/07/01 01:04:07;;;;;;;19.30;13.03;;;;;;;18.75;74.88;95803.72;5048927;28;20667;-70
2023/07/01 01:06:50;;;;;;;18.03;12.53;;;;;;;18.81;74.77;95794.44;5049033;28;21129;-69
2023/07/01 01:09:31;;;;;;;16.00;12.60;;;;;;;18.83;74.38;95796.00;5048751;28;20514;-68
2023/07/01 01:11:58;;;;;;;11.97;10.43;;;;;;;18.77;74.27;95791.19;5048684;28;20404;-68
2023/07/01 01:14:25;;;;;;;46.73;15.27;;;;;;;18.73;74.70;95792.41;5048417;28;20433;-70
2023/07/01 01:16:50;;;;;;;17.10;11.90;;;;;;;18.68;74.82;95791.94;5048499;28;20425;-70
2023/07/01 01:19:40;;;;;;;15.00;11.80;;;;;;;18.71;74.38;95790.84;5048605;28;20452;-69
2023/07/01 01:22:15;;;;;;;17.47;11.70;;;;;;;18.70;74.39;95791.84;5048536;28;20206;-69
2023/07/01 01:24:44;;;;;;;20.70;10.97;;;;;;;18.60;74.49;95789.97;5048571;28;20456;-69
2023/07/01 01:27:12;;;;;;;12.80;11.20;;;;;;;18.70;74.16;95792.66;5049067;28;20409;-67
2023/07/01 01:29:38;;;;;;;12.60;10.40;;;;;;;18.67;73.66;95787.63;5048666;28;20414;-69
2023/07/01 01:32:07;;;;;;;14.97;10.33;;;;;;;18.58;73.53;95788.41;5048513;28;20460;-69
2023/07/01 01:34:33;;;;;;;20.50;10.70;;;;;;;18.60;73.30;95783.81;5048224;28;20682;-69
2023/07/01 01:37:03;;;;;;;18.87;11.97;;;;;;;18.67;73.24;95792.94;5048126;28;20965;-69
2023/07/01 01:39:33;;;;;;;15.83;11.00;;;;;;;18.62;73.17;95789.84;5048475;28;20520;-70
2023/07/01 01:42:08;;;;;;;18.30;10.43;;;;;;;18.68;73.10;95781.31;5048200;28;20982;-68
2023/07/01 01:44:47;;;;;;;17.47;10.67;;;;;;;18.65;73.77;95781.59;5047825;28;20515;-70
2023/07/01 01:47:17;;;;;;;17.87;9.63;;;;;;;18.54;74.58;95777.22;5048408;28;21096;-71
2023/07/01 01:49:44;;;;;;;14.90;9.77;;;;;;;18.54;74.63;95789.63;5048585;28;20508;-69
2023/07/01 01:52:14;;;;;;;20.43;10.13;;;;;;;18.58;74.70;95783.94;5047738;28;20415;-70
2023/07/01 01:54:40;;;;;;;13.67;9.50;;;;;;;18.52;74.84;95783.59;5047345;28;20433;-70
2023/07/01 01:57:06;;;;;;;14.37;10.20;;;;;;;18.55;74.47;95786.03;5047762;28;20754;-70
2023/07/01 01:59:32;;;;;;;10.60;8.50;;;;;;;18.52;74.68;95783.59;5047562;28;20474;-70
2023/07/01 02:01:57;;;;;;;12.70;8.70;;;;;;;18.37;74.77;95777.78;5046862;28;20207;-69
2023/07/01 02:04:22;;;;;;;11.17;7.47;;;;;;;18.33;75.04;95776.38;5046796;28;20209;-70
2023/07/01 02:06:48;;;;;;;14.50;9.07;;;;;;;18.35;74.91;95775.28;5047542;28;20198;-70
2023/07/01 02:09:13;;;;;;;11.13;7.30;;;;;;;18.31;74.67;95778.34;5047465;28;20171;-70
2023/07/01 02:11:39;;;;;;;8.53;7.07;;;;;;;18.31;74.70;95779.16;5047221;28;20560;-68
2023/07/01 02:14:04;;;;;;;16.57;8.00;;;;;;;18.33;74.05;95774.56;5046815;28;20247;-70
2023/07/01 02:16:33;;;;;;;12.83;7.70;;;;;;;18.23;74.38;95772.81;5047094;28;20265;-69
2023/07/01 02:18:58;;;;;;;13.07;7.60;;;;;;;18.22;74.38;95779.09;5047292;28;20190;-70
2023/07/01 02:21:24;;;;;;;9.80;6.30;;;;;;;18.22;74.09;95782.59;5047840;28;20457;-69
2023/07/01 02:23:50;;;;;;;13.70;6.47;;;;;;;18.26;73.96;95784.03;5049787;28;20194;-70
2023/07/01 02:26:15;;;;;;;15.60;7.33;;;;;;;18.24;74.06;95771.88;5047510;28;20175;-71
2023/07/01 02:28:40;;;;;;;10.43;7.27;;;;;;;18.11;74.04;95772.03;5047285;28;20995;-70
2023/07/01 02:31:06;;;;;;;10.17;8.43;;;;;;;18.20;73.87;95764.13;5047048;28;20195;-70
2023/07/01 02:33:31;;;;;;;7.90;6.10;;;;;;;18.14;74.27;95782.38;5046424;28;20175;-69
2023/07/01 02:35:57;;;;;;;13.80;7.00;;;;;;;18.11;73.74;95785.31;5046836;28;20253;-69
2023/07/01 02:38:23;;;;;;;8.53;6.73;;;;;;;18.19;73.24;95781.06;5046997;28;20175;-69
2023/07/01 02:40:48;;;;;;;12.67;8.77;;;;;;;18.20;73.33;95780.06;5046644;28;20518;-70
2023/07/01 02:43:13;;;;;;;22.60;8.90;;;;;;;18.24;72.69;95777.16;5046612;28;20203;-70
2023/07/01 02:45:40;;;;;;;14.23;6.20;;;;;;;18.21;72.40;95778.25;5046547;28;20660;-69
2023/07/01 02:48:05;;;;;;;8.97;6.10;;;;;;;18.21;71.88;95778.25;5046845;28;20904;-70
2023/07/01 02:50:30;;;;;;;26.70;7.03;;;;;;;18.26;71.54;95776.06;5046694;28;20420;-69
2023/07/01 02:52:56;;;;;;;16.00;7.63;;;;;;;18.26;71.05;95776.06;5046755;28;20179;-70
2023/07/01 02:55:23;;;;;;;14.43;5.40;;;;;;;18.27;70.59;95775.09;5046322;28;20193;-69
2023/07/01 02:57:48;;;;;;;9.03;5.50;;;;;;;18.23;70.27;95773.66;5046280;28;20635;-70
2023/07/01 03:00:14;;;;;;;11.23;5.23;;;;;;;18.22;70.86;95769.31;5046427;28;20421;-69
2023/07/01 03:02:39;;;;;;;19.00;6.77;;;;;;;18.25;70.77;95774.38;5046238;28;20248;-70
2023/07/01 03:05:07;;;;;;;11.13;5.97;;;;;;;18.25;70.82;95769.06;5046021;28;20187;-71
2023/07/01 03:07:33;;;;;;;15.63;7.17;;;;;;;18.19;71.06;95770.44;5046529;28;20182;-70
2023/07/01 03:09:58;;;;;;;10.17;5.70;;;;;;;18.12;72.15;95771.09;5046454;28;20937;-70
2023/07/01 03:12:23;;;;;;;10.30;5.70;;;;;;;18.22;71.66;95773.81;5046359;28;20258;-70
2023/07/01 03:14:49;;;;;;;8.10;6.00;;;;;;;18.23;71.35;95776.31;5044858;28;20272;-70
2023/07/01 03:17:14;;;;;;;11.40;6.40;;;;;;;18.23;71.38;95773.66;5046037;28;20782;-70
2023/07/01 03:19:41;;;;;;;9.43;5.20;;;;;;;18.17;71.37;95779.50;5046086;28;20193;-70
2023/07/01 03:22:07;;;;;;;10.87;6.07;;;;;;;18.13;71.78;95781.56;5046182;28;20198;-71
2023/07/01 03:24:33;;;;;;;22.40;7.37;;;;;;;18.09;71.72;95779.28;5044291;28;20953;-70
2023/07/01 03:27:01;;;;;;;9.87;6.30;;;;;;;18.17;71.29;95775.03;5046148;28;20178;-70
2023/07/01 03:29:27;;;;;;;13.50;5.67;;;;;;;18.19;71.08;95781.06;5046112;28;20512;-70
2023/07/01 03:31:52;;;;;;;12.13;5.50;;;;;;;18.17;71.03;95787.47;5045998;28;20424;-70
2023/07/01 03:34:17;;;;;;;61.03;12.10;;;;;;;18.16;71.24;95788.41;5045489;28;20241;-71
2023/07/01 03:36:43;;;;;;;16.37;5.70;;;;;;;18.12;71.30;95774.56;5045780;28;20171;-70
2023/07/01 03:39:08;;;;;;;12.47;5.93;;;;;;;18.07;71.25;95775.91;5046051;28;20171;-69
2023/07/01 03:41:33;;;;;;;14.13;6.10;;;;;;;18.05;71.63;95776.06;5045757;28;20203;-70
2023/07/01 03:43:59;;;;;;;7.27;5.77;;;;;;;18.06;71.87;95775.06;5045413;28;20810;-69
2023/07/01 03:46:24;;;;;;;24.03;7.07;;;;;;;18.04;71.69;95781.47;5045625;28;20614;-70
2023/07/01 03:48:50;;;;;;;26.17;8.00;;;;;;;17.94;72.85;95776.94;5045749;28;20171;-70
2023/07/01 03:51:15;;;;;;;17.10;6.50;;;;;;;17.89;73.26;95770.34;5045449;28;20278;-71
2023/07/01 03:53:40;;;;;;;12.13;5.30;;;;;;;17.94;72.91;95776.94;5045222;28;20289;-70
2023/07/01 03:56:06;;;;;;;11.10;6.13;;;;;;;17.91;72.50;95774.56;5045720;28;20232;-70
2023/07/01 03:58:32;;;;;;;15.83;5.93;;;;;;;17.89;72.73;95778.31;5045180;28;20183;-70
2023/07/01 04:00:57;;;;;;;40.37;8.23;;;;;;;17.82;73.16;95770.00;5045498;28;20201;-70
2023/07/01 04:03:23;;;;;;;16.10;7.10;;;;;;;17.93;72.42;95767.31;5045340;28;20167;-70
2023/07/01 04:05:52;;;;;;;12.67;5.60;;;;;;;17.91;72.35;95769.25;5045766;28;20497;-70
2023/07/01 04:08:18;;;;;;;12.67;5.63;;;;;;;17.89;72.12;95771.19;5046093;28;20174;-70
2023/07/01 04:10:43;;;;;;;17.87;6.27;;;;;;;17.90;72.13;95767.53;5045655;28;20414;-71
2023/07/01 04:13:10;;;;;;;21.97;6.37;;;;;;;17.83;72.47;95774.31;5045986;28;20202;-70
2023/07/01 04:15:35;;;;;;;29.03;7.63;;;;;;;17.77;72.59;95773.00;5045125;28;20198;-71
2023/07/01 04:18:00;;;;;;;12.30;6.03;;;;;;;17.94;72.26;95771.63;5045615;28;20425;-70
2023/07/01 04:20:26;;;;;;;18.77;5.77;;;;;;;17.92;72.50;95773.56;5045881;28;20236;-70
2023/07/01 04:22:52;;;;;;;16.40;5.90;;;;;;;17.89;72.09;95779.16;5045890;28;20202;-71
2023/07/01 04:25:17;;;;;;;21.67;6.70;;;;;;;17.87;72.15;95775.78;5045612;28;20457;-71
2023/07/01 04:27:43;;;;;;;17.13;6.53;;;;;;;17.96;71.97;95775.00;5049457;28;20171;-70
2023/07/01 04:30:11;;;;;;;22.03;7.57;;;;;;;17.97;71.98;95771.38;5056780;28;20181;-70
2023/07/01 04:32:37;;;;;;;14.87;6.23;;;;;;;18.06;71.87;95772.41;5066023;28;20167;-70
2023/07/01 04:35:03;;;;;;;11.30;5.00;;;;;;;17.91;72.34;95765.75;5055833;28;20436;-70
2023/07/01 04:37:28;;;;;;;10.60;5.23;;;;;;;17.90;72.68;95772.84;5049370;28;20175;-71
2023/07/01 04:39:54;;;;;;;8.10;5.30;;;;;;;17.91;72.76;95773.72;5049287;28;20253;-70
2023/07/01 04:42:19;;;;;;;6.73;5.10;;;;;;;18.01;72.52;95773.78;5049226;28;20198;-69
2023/07/01 04:44:53;;;;;;;7.53;5.60;;;;;;;17.92;72.86;95772.72;5048759;28;20765;-68
2023/07/01 04:47:22;;;;;;;8.40;6.33;;;;;;;18.04;72.47;95769.03;5048976;28;20171;-70
2023/07/01 04:49:47;;;;;;;13.90;6.10;;;;;;;18.04;73.07;95779.66;5049331;28;20899;-70
2023/07/01 04:52:15;;;;;;;13.10;6.13;;;;;;;17.98;72.92;95774.88;5049291;28;20467;-70
2023/07/01 04:54:40;;;;;;;13.10;6.27;;;;;;;17.87;73.15;95777.59;5048450;28;20199;-71
2023/07/01 04:57:05;;;;;;;18.67;6.40;;;;;;;17.93;73.28;95774.44;5048893;28;20428;-71
2023/07/01 04:59:31;;;;;;;21.73;6.57;;;;;;;17.92;73.29;95773.56;5048645;28;20305;-70
2023/07/01 05:01:56;;;;;;;18.23;6.07;;;;;;;17.96;72.61;95775.00;5048685;28;20207;-71
2023/07/01 05:04:22;;;;;;;14.30;6.33;;;;;;;18.07;72.52;95774.13;5048089;28;20563;-70
2023/07/01 05:06:47;;;;;;;19.23;6.50;;;;;;;18.13;72.38;95778.06;5048741;28;20675;-70
2023/07/01 05:09:12;;;;;;;11.07;5.70;;;;;;;18.22;71.70;95779.94;5048688;28;20175;-70
2023/07/01 05:11:38;;;;;;;7.00;5.77;;;;;;;18.11;72.03;95782.66;5048445;28;20254;-70
2023/07/01 05:14:04;;;;;;;11.87;5.60;;;;;;;18.23;71.59;95784.28;5048477;28;20875;-70
2023/07/01 05:16:31;;;;;;;9.10;5.77;;;;;;;18.30;71.61;95773.97;5048506;28;20171;-70
2023/07/01 05:18:58;;;;;;;17.83;6.10;;;;;;;18.32;71.56;95772.03;5048559;28;20435;-70
2023/07/01 05:21:24;;;;;;;11.33;5.00;;;;;;;18.63;70.26;95772.91;5048442;28;20461;-71
2023/07/01 05:23:49;;;;;;;22.80;7.07;;;;;;;18.99;68.96;95770.72;5048248;28;20443;-71
2023/07/01 05:26:14;;;;;;;21.37;6.77;;;;;;;19.62;66.54;95767.78;5048296;28;20174;-70
2023/07/01 05:28:40;;;;;;;11.10;5.30;;;;;;;19.76;65.91;95766.56;5048666;28;20170;-71
2023/07/01 05:31:05;;;;;;;10.10;5.63;;;;;;;19.95;65.06;95760.41;5048372;28;20167;-70
2023/07/01 05:33:30;;;;;;;13.47;5.90;;;;;;;20.11;64.64;95768.69;5047755;28;20900;-69
2023/07/01 05:35:56;;;;;;;10.40;5.97;;;;;;;20.23;63.89;95769.38;5048278;28;20335;-70
2023/07/01 05:38:22;;;;;;;10.30;5.83;;;;;;;20.26;63.39;95769.91;5047195;28;20670;-70
2023/07/01 05:40:47;;;;;;;11.70;6.20;;;;;;;20.48;62.87;95773.22;5048272;28;20254;-70
2023/07/01 05:43:12;;;;;;;7.63;6.83;;;;;;;20.64;62.35;95772.66;5052659;28;20175;-70
2023/07/01 05:45:38;;;;;;;13.70;6.80;;;;;;;20.74;61.87;95768.16;5048376;28;20239;-70
2023/07/01 05:48:03;;;;;;;16.10;7.60;;;;;;;21.05;60.69;95773.25;5048068;28;20751;-70
2023/07/01 05:50:29;;;;;;;9.83;6.23;;;;;;;21.28;59.96;95765.66;5048292;28;20174;-70
2023/07/01 05:52:54;;;;;;;11.77;7.60;;;;;;;21.36;59.33;95766.59;5047836;28;20171;-70
2023/07/01 05:55:19;;;;;;;15.30;8.60;;;;;;;21.27;58.79;95762.16;5046829;28;20578;-70
2023/07/01 05:57:45;;;;;;;9.30;7.70;;;;;;;20.99;59.13;95771.16;5047527;28;20175;-70
2023/07/01 06:00:13;;;;;;;34.37;9.20;;;;;;;20.81;59.41;95763.94;5043193;28;20282;-70
2023/07/01 06:02:38;;;;;;;11.43;6.63;;;;;;;20.82;59.48;95765.59;5046362;28;20229;-70
2023/07/01 06:05:04;;;;;;;6.30;5.70;;;;;;;20.56;60.92;95768.06;5046999;28;21002;-69
2023/07/01 06:07:29;;;;;;;10.87;7.17;;;;;;;20.43;61.63;95775.50;5047160;28;20210;-70
2023/07/01 06:09:55;;;;;;;9.17;5.80;;;;;;;20.22;62.14;95773.84;5047383;28;20205;-70
2023/07/01 06:12:20;;;;;;;10.80;5.30;;;;;;;20.20;62.46;95775.81;5046520;28;20171;-70
2023/07/01 06:14:45;;;;;;;15.07;6.30;;;;;;;20.18;62.45;95784.94;5042480;28;20562;-70
2023/07/01 06:17:11;;;;;;;14.03;6.27;;;;;;;20.00;62.93;95785.63;5038484;28;20285;-70
2023/07/01 06:19:36;;;;;;;9.60;6.37;;;;;;;20.19;62.22;95774.13;5027827;28;20190;-70
2023/07/01 06:22:02;;;;;;;8.50;7.03;;;;;;;20.18;62.20;95780.44;5027016;28;20214;-69
2023/07/01 06:24:28;;;;;;;10.87;5.53;;;;;;;20.33;61.64;95780.00;5046598;28;20203;-70
2023/07/01 06:26:53;;;;;;;9.60;5.73;;;;;;;20.42;61.29;95779.16;5047028;28;20250;-70
2023/07/01 06:29:18;;;;;;;5.97;5.37;;;;;;;20.34;61.68;95779.00;5047136;28;20406;-69
2023/07/01 06:31:44;;;;;;;12.20;7.30;;;;;;;20.56;60.80;95780.56;5047448;28;20252;-70
2023/07/01 06:34:15;;;;;;;12.67;6.70;;;;;;;20.70;60.39;95785.44;5046210;28;20201;-70
2023/07/01 06:36:41;;;;;;;13.33;6.37;;;;;;;20.86;59.80;95775.00;5047195;28;20178;-72
2023/07/01 06:39:07;;;;;;;7.40;6.70;;;;;;;20.98;58.97;95778.31;5046939;28;20421;-69
2023/07/01 06:41:32;;;;;;;7.97;7.10;;;;;;;21.04;59.21;95776.88;5046664;28;20895;-71
2023/07/01 06:43:58;;;;;;;11.13;6.33;;;;;;;21.38;58.10;95770.94;5046435;28;20260;-70
2023/07/01 06:46:23;;;;;;;12.27;7.20;;;;;;;21.87;56.96;95766.16;5046463;28;20174;-68
2023/07/01 06:48:48;;;;;;;10.47;6.53;;;;;;;22.22;55.92;95759.97;5046564;28;20171;-70
2023/07/01 06:51:14;;;;;;;7.40;6.40;;;;;;;22.46;55.16;95759.31;5046785;28;20877;-70
2023/07/01 06:53:40;;;;;;;19.33;7.57;;;;;;;22.51;55.25;95762.38;5046721;28;20201;-71
2023/07/01 06:56:06;;;;;;;10.27;5.30;;;;;;;22.30;55.40;95762.72;5047233;28;20220;-70
2023/07/01 06:58:31;;;;;;;10.63;6.60;;;;;;;22.37;55.02;95765.59;5046772;28;20833;-70
2023/07/01 07:00:57;;;;;;;7.20;6.00;;;;;;;22.40;54.32;95754.59;5046484;28;20460;-70
2023/07/01 07:03:22;;;;;;;6.73;5.73;;;;;;;22.40;53.28;95751.94;5046077;28;20185;-70
2023/07/01 07:05:47;;;;;;;7.00;6.20;;;;;;;22.74;52.18;95743.94;5046498;28;20181;-70
2023/07/01 07:08:13;;;;;;;11.67;6.33;;;;;;;23.32;51.02;95750.44;5046861;28;20170;-71
2023/07/01 07:10:38;;;;;;;8.93;6.30;;;;;;;23.42;50.01;95742.28;5046527;28;20167;-71
2023/07/01 07:13:03;;;;;;;8.50;6.40;;;;;;;23.52;48.84;95740.28;5046315;28;20520;-70
2023/07/01 07:15:29;;;;;;;7.17;6.27;;;;;;;23.62;48.04;95745.50;5045774;28;20319;-71
2023/07/01 07:17:55;;;;;;;10.43;6.10;;;;;;;23.91;48.56;95742.41;5046119;28;20190;-70
2023/07/01 07:20:21;;;;;;;13.77;6.23;;;;;;;23.99;49.25;95736.22;5046508;28;20206;-71
2023/07/01 07:22:46;;;;;;;13.77;5.87;;;;;;;23.99;49.10;95739.72;5045960;28;20573;-71
2023/07/01 07:25:18;;;;;;;8.63;5.63;;;;;;;24.06;46.64;95739.91;5045902;28;20437;-71
2023/07/01 07:27:44;;;;;;;12.93;6.00;;;;;;;23.99;46.80;95744.25;5046286;28;20273;-71
2023/07/01 07:30:14;;;;;;;15.73;6.13;;;;;;;24.18;46.71;95737.72;5046342;28;20989;-71
2023/07/01 07:32:39;;;;;;;10.23;7.13;;;;;;;24.00;47.35;95740.56;5045993;28;20414;-70
2023/07/01 07:35:05;;;;;;;6.50;5.90;;;;;;;23.45;49.16;95737.41;5044162;28;20464;-71
2023/07/01 07:37:31;;;;;;;18.27;6.77;;;;;;;23.83;48.21;95743.22;5046252;28;20178;-70
2023/07/01 07:39:59;;;;;;;11.73;6.47;;;;;;;23.43;47.81;95750.16;5045797;28;20202;-71
2023/07/01 07:42:28;;;;;;;24.83;7.50;;;;;;;23.17;47.55;95747.56;5045169;28;20610;-72
2023/07/01 07:44:53;;;;;;;7.60;5.60;;;;;;;23.65;46.16;95737.97;5046000;28;20922;-71
2023/07/01 07:47:18;;;;;;;6.20;5.40;;;;;;;24.04;45.55;95732.00;5046012;28;20507;-71
2023/07/01 07:49:44;;;;;;;5.83;5.33;;;;;;;24.13;44.42;95730.19;5045849;28;20677;-70
2023/07/01 07:52:09;;;;;;;9.13;5.63;;;;;;;24.12;44.56;95728.53;5044211;28;20285;-71
2023/07/01 07:54:34;;;;;;;15.63;6.60;;;;;;;23.83;45.15;95729.00;5045150;28;20248;-71
2023/07/01 07:57:00;;;;;;;14.90;6.40;;;;;;;23.71;46.09;95717.72;5045427;28;20585;-70
2023/07/01 07:59:27;;;;;;;13.27;6.47;;;;;;;23.59;45.72;95721.72;5045443;28;20269;-71
2023/07/01 08:01:53;;;;;;;13.67;6.23;;;;;;;23.78;45.45;95720.63;5048602;28;20225;-70
2023/07/01 08:04:19;;;;;;;9.17;6.30;;;;;;;23.99;45.13;95720.13;5049852;28;21049;-70
2023/07/01 08:06:44;;;;;;;16.00;7.50;;;;;;;24.09;45.24;95718.97;5049111;28;20523;-70
2023/07/01 08:09:10;;;;;;;7.80;5.20;;;;;;;24.42;42.46;95718.91;5049383;28;20265;-70
2023/07/01 08:11:35;;;;;;;5.63;4.87;;;;;;;24.71;42.09;95713.03;5049797;28;20953;-69
2023/07/01 08:14:00;;;;;;;43.07;9.87;;;;;;;25.04;42.09;95704.03;5049412;28;20198;-70
2023/07/01 08:16:26;;;;;;;9.20;4.97;;;;;;;25.19;41.64;95709.56;5050113;28;20929;-71
2023/07/01 08:18:51;;;;;;;19.83;5.93;;;;;;;25.10;41.71;95701.50;5049377;28;20186;-70
2023/07/01 08:21:17;;;;;;;12.90;6.03;;;;;;;24.89;41.95;95703.91;5049448;28;20194;-69
2023/07/01 08:23:42;;;;;;;17.80;6.50;;;;;;;24.80;42.14;95700.41;5049090;28;20578;-71
2023/07/01 08:26:07;;;;;;;8.20;5.40;;;;;;;24.61;41.81;95698.97;5049332;28;20254;-71
2023/07/01 08:28:33;;;;;;;11.30;5.93;;;;;;;24.44;42.28;95694.63;5049316;28;20701;-71
2023/07/01 08:30:58;;;;;;;8.30;4.53;;;;;;;24.99;40.22;95691.13;5049445;28;20163;-71
2023/07/01 08:33:25;;;;;;;13.30;4.97;;;;;;;25.09;40.69;95699.81;5048911;28;20719;-71
2023/07/01 08:35:50;;;;;;;19.10;5.57;;;;;;;25.12;39.81;95686.03;5049404;28;20638;-71
2023/07/01 08:38:16;;;;;;;15.03;5.53;;;;;;;25.04;39.91;95696.84;5049099;28;20413;-69
2023/07/01 08:40:42;;;;;;;19.33;5.33;;;;;;;25.13;40.08;95685.06;5049212;28;20280;-70
2023/07/01 08:43:10;;;;;;;10.40;4.70;;;;;;;25.22;38.90;95690.41;5048895;28;20269;-70
2023/07/01 08:45:38;;;;;;;10.40;5.00;;;;;;;25.00;39.96;95689.31;5048913;28;20615;-71
2023/07/01 08:48:05;;;;;;;8.13;4.80;;;;;;;25.35;39.00;95680.75;5049093;28;20410;-71
2023/07/01 08:50:41;;;;;;;6.93;4.70;;;;;;;24.87;39.89;95689.84;5049349;28;20491;-71
2023/07/01 08:53:08;;;;;;;16.33;7.77;;;;;;;24.04;40.27;95689.13;5048865;28;20417;-70
2023/07/01 08:55:34;;;;;;;5.80;4.50;;;;;;;24.57;38.63;95694.13;5048589;28;20429;-71
2023/07/01 08:58:00;;;;;;;6.73;4.13;;;;;;;24.70;37.77;95692.56;5049700;28;20409;-72
2023/07/01 09:00:26;;;;;;;12.47;5.33;;;;;;;25.17;37.83;95682.84;5050940;28;20236;-70
2023/07/01 09:02:52;;;;;;;8.50;4.53;;;;;;;25.17;38.02;95685.53;5048965;28;20464;-70
2023/07/01 09:05:18;;;;;;;10.60;4.93;;;;;;;24.92;37.74;95671.34;5049040;28;20194;-71
2023/07/01 09:07:43;;;;;;;7.97;3.37;;;;;;;25.02;37.24;95669.31;5049129;28;20755;-71
2023/07/01 09:10:11;;;;;;;49.13;8.20;;;;;;;25.26;35.98;95672.94;5048974;28;20171;-71
2023/07/01 09:12:36;;;;;;;10.73;4.50;;;;;;;25.37;35.37;95666.31;5048857;28;20961;-70
2023/07/01 09:15:04;;;;;;;29.97;6.27;;;;;;;25.39;35.40;95667.81;5048750;28;20521;-71
2023/07/01 09:17:40;;;;;;;14.47;4.43;;;;;;;25.37;34.83;95664.47;5047543;28;20271;-70
2023/07/01 09:20:09;;;;;;;4.87;3.47;;;;;;;25.44;34.75;95660.06;5048283;28;20437;-70
2023/07/01 09:22:38;;;;;;;11.37;3.80;;;;;;;25.39;35.60;95659.75;5048566;28;20473;-70
2023/07/01 09:25:04;;;;;;;5.60;3.70;;;;;;;25.27;35.64;95658.47;5047945;28;20467;-71
2023/07/01 09:27:40;;;;;;;5.77;3.60;;;;;;;25.35;35.87;95661.13;5048391;28;20417;-71
2023/07/01 09:30:26;;;;;;;12.63;4.30;;;;;;;25.28;36.10;95657.47;5048223;28;20421;-72
2023/07/01 09:32:52;;;;;;;11.07;4.07;;;;;;;25.64;36.30;95656.91;5048696;28;20522;-71
2023/07/01 09:35:17;;;;;;;19.23;4.90;;;;;;;25.69;36.92;95641.06;5048358;28;20440;-71
2023/07/01 09:37:43;;;;;;;7.40;4.13;;;;;;;25.59;35.74;95643.19;5048751;28;20440;-72
2023/07/01 09:40:19;;;;;;;6.50;3.90;;;;;;;25.59;35.34;95638.63;5049023;28;20171;-73
2023/07/01 09:42:55;;;;;;;7.30;4.07;;;;;;;25.61;34.97;95638.44;5048709;28;20194;-70
2023/07/01 09:45:21;;;;;;;8.33;3.77;;;;;;;25.38;35.85;95641.97;5047778;28;20425;-72
2023/07/01 09:47:54;;;;;;;4.23;3.83;;;;;;;25.50;35.38;95632.47;5048457;28;20425;-73
2023/07/01 09:50:33;;;;;;;6.63;4.83;;;;;;;25.42;35.20;95637.91;5048134;28;20182;-71
2023/07/01 09:52:58;;;;;;;11.50;4.20;;;;;;;25.45;35.37;95642.94;5048333;28;20459;-72
2023/07/01 09:55:24;;;;;;;5.10;3.40;;;;;;;25.18;35.32;95633.50;5047609;28;20479;-71
2023/07/01 09:57:49;;;;;;;9.60;3.70;;;;;;;25.11;35.48;95625.31;5047978;28;20263;-70
2023/07/01 10:00:16;;;;;;;7.53;4.23;;;;;;;25.38;35.09;95627.72;5047897;28;20177;-70
2023/07/01 10:02:46;;;;;;;12.47;4.30;;;;;;;25.65;34.85;95623.63;5047764;28;20969;-71
2023/07/01 10:05:14;;;;;;;9.43;4.23;;;;;;;25.62;34.47;95624.00;5047295;28;20433;-71
2023/07/01 10:07:40;;;;;;;9.77;4.20;;;;;;;25.54;34.60;95623.06;5047698;28;20959;-72
2023/07/01 10:10:16;;;;;;;8.53;4.37;;;;;;;25.24;35.15;95634.66;5047722;28;20413;-71
2023/07/01 10:12:44;;;;;;;12.57;4.37;;;;;;;25.01;35.57;95608.56;5047697;28;20405;-72
2023/07/01 10:15:11;;;;;;;6.43;3.80;;;;;;;24.69;37.00;95618.47;5047646;28;20505;-71
2023/07/01 10:17:45;;;;;;;5.00;4.23;;;;;;;25.15;35.81;95609.69;5047400;28;20429;-71
2023/07/01 10:20:37;;;;;;;12.27;4.50;;;;;;;25.31;36.08;95609.59;5047798;28;20409;-70
2023/07/01 10:23:03;;;;;;;5.30;4.07;;;;;;;25.28;36.54;95603.78;5047548;28;20473;-70
2023/07/01 10:25:32;;;;;;;5.80;3.73;;;;;;;25.22;37.00;95607.97;5050151;28;20502;-71
2023/07/01 10:27:59;;;;;;;5.10;3.80;;;;;;;25.30;36.91;95602.56;5047567;28;20171;-71
2023/07/01 10:30:44;;;;;;;8.03;3.97;;;;;;;24.83;37.40;95600.81;5047271;28;20425;-71
2023/07/01 10:33:33;;;;;;;12.50;4.83;;;;;;;25.11;36.74;95602.97;5047319;28;20476;-71
2023/07/01 10:36:13;;;;;;;12.27;4.43;;;;;;;25.12;36.79;95605.50;5047389;28;20417;-71
2023/07/01 10:38:39;;;;;;;14.40;4.43;;;;;;;25.08;37.40;95596.13;5047160;28;20425;-71
2023/07/01 10:41:05;;;;;;;6.70;4.37;;;;;;;25.04;37.05;95596.66;5045586;28;20460;-72
2023/07/01 10:43:36;;;;;;;5.43;4.83;;;;;;;24.78;36.66;95587.09;5047304;28;20516;-70
2023/07/01 10:46:12;;;;;;;7.77;3.87;;;;;;;24.76;37.26;95580.19;5049638;28;20521;-71
2023/07/01 10:48:39;;;;;;;6.90;4.47;;;;;;;24.81;36.34;95586.72;5049484;28;20413;-70
2023/07/01 10:51:07;;;;;;;8.60;5.20;;;;;;;24.86;36.51;95578.97;5047375;28;20413;-72
2023/07/01 10:54:02;;;;;;;10.83;4.87;;;;;;;24.79;36.93;95579.84;5047374;28;20464;-72
2023/07/01 10:56:35;;;;;;;10.77;5.37;;;;;;;24.98;38.01;95578.59;5049298;28;20430;-72
2023/07/01 10:59:29;;;;;;;12.07;5.40;;;;;;;24.98;37.71;95571.34;5050090;28;20401;-71
2023/07/01 11:01:56;;;;;;;11.23;4.80;;;;;;;24.77;37.38;95574.66;5047404;28;20460;-71
2023/07/01 11:04:45;;;;;;;10.93;4.33;;;;;;;24.57;38.30;95566.22;5046894;28;21027;-72
2023/07/01 11:07:10;;;;;;;10.37;4.40;;;;;;;24.67;37.98;95561.47;5047086;28;20511;-72
2023/07/01 11:09:36;;;;;;;21.67;6.67;;;;;;;24.63;38.03;95554.75;5047126;28;20437;-70
2023/07/01 11:12:04;;;;;;;15.03;5.50;;;;;;;24.86;38.46;95562.88;5047051;28;20343;-70
2023/07/01 11:14:32;;;;;;;24.70;5.67;;;;;;;24.76;38.11;95561.41;5046877;28;20776;-71
2023/07/01 11:17:26;;;;;;;6.47;4.90;;;;;;;24.86;37.88;95562.03;5047081;28;20419;-71
2023/07/01 11:19:58;;;;;;;10.73;4.10;;;;;;;24.91;38.22;95544.38;5047646;28;20410;-70
2023/07/01 11:22:24;;;;;;;6.77;4.20;;;;;;;24.81;38.53;95546.47;5047396;28;20453;-71
2023/07/01 11:24:49;;;;;;;10.90;5.77;;;;;;;24.74;38.07;95544.69;5046851;28;20425;-71
2023/07/01 11:27:17;;;;;;;9.67;4.37;;;;;;;24.51;38.40;95551.63;5046960;28;20195;-71